Andapa Airport


Codes: FMND/ZWA
Name: Andapa Airport
City:
Country: Madagascar
Elevation: 1552 ft.

Photos at Andapa Airport


   Photos courtesy of SpottingLog. You can add your own sightings and photos by signing up for a free trial today.



No photos found.

Weather at Andapa Airport


Time (UTC)DescriptionTempratureWindCloud coverageVisibilityPressureHumidity
15-Apr-2024 18:00Scattered Clouds22°C2 mph, SW34%10000m1017hPa96%
15-Apr-2024 21:00Broken Clouds22°C2 mph, SW76%10000m1017hPa97%
16-Apr-2024 00:00Overcast Clouds21°C2 mph, SW100%10000m1016hPa98%
16-Apr-2024 03:00Overcast Clouds21°C2 mph, SW100%10000m1017hPa95%
16-Apr-2024 06:00Overcast Clouds25°C2 mph, SE100%10000m1018hPa81%
16-Apr-2024 09:00Light Rain25°C4 mph, E100%10000m1016hPa91%
16-Apr-2024 12:00Light Rain24°C2 mph, E100%10000m1016hPa96%
16-Apr-2024 15:00Light Rain22°C2 mph, SE100%10000m1018hPa99%
16-Apr-2024 18:00Overcast Clouds21°C2 mph, SW93%10000m1019hPa99%
16-Apr-2024 21:00Broken Clouds19°C2 mph, SW60%10000m1019hPa99%
17-Apr-2024 00:00Broken Clouds18°C2 mph, SW55%10000m1018hPa98%
17-Apr-2024 03:00Overcast Clouds19°C2 mph, SW92%10000m1019hPa97%
17-Apr-2024 06:00Overcast Clouds23°C2 mph, S96%10000m1019hPa83%
17-Apr-2024 09:00Light Rain25°C4 mph, SE100%10000m1017hPa81%
17-Apr-2024 12:00Light Rain25°C2 mph, SE100%10000m1016hPa89%
17-Apr-2024 15:00Light Rain21°C2 mph, S100%10000m1018hPa98%
17-Apr-2024 18:00Light Rain21°C2 mph, SW100%10000m1020hPa99%
17-Apr-2024 21:00Light Rain21°C2 mph, S100%10000m1019hPa99%
18-Apr-2024 00:00Light Rain21°C2 mph, S100%4602m1017hPa100%
18-Apr-2024 03:00Light Rain22°C2 mph, SE100%581m1018hPa100%
18-Apr-2024 06:00Light Rain22°C2 mph, SE100%554m1020hPa100%
18-Apr-2024 09:00Light Rain23°C2 mph, SE98%2362m1018hPa98%
18-Apr-2024 12:00Light Rain23°C2 mph, SE95%4143m1017hPa98%
18-Apr-2024 15:00Light Rain22°C2 mph, S93%7246m1018hPa99%
18-Apr-2024 18:00Light Rain21°C2 mph, S95%6928m1019hPa99%
18-Apr-2024 21:00Light Rain20°C2 mph, SW89%10000m1018hPa99%
19-Apr-2024 00:00Overcast Clouds19°C2 mph, SW89%10000m1017hPa99%
19-Apr-2024 03:00Overcast Clouds19°C2 mph, SW92%10000m1018hPa99%
19-Apr-2024 06:00Overcast Clouds25°C2 mph, SE96%10000m1018hPa72%
19-Apr-2024 09:00Overcast Clouds28°C4 mph, SE97%10000m1014hPa56%
19-Apr-2024 12:00Overcast Clouds27°C4 mph, SE99%10000m1013hPa65%
19-Apr-2024 15:00Light Rain22°C2 mph, SE100%10000m1015hPa96%
19-Apr-2024 18:00Light Rain21°C2 mph, S100%10000m1016hPa98%
19-Apr-2024 21:00Overcast Clouds21°C2 mph, SW100%10000m1015hPa98%
20-Apr-2024 00:00Overcast Clouds20°C2 mph, SW100%10000m1014hPa95%
20-Apr-2024 03:00Overcast Clouds21°C2 mph, SW100%10000m1015hPa92%
20-Apr-2024 06:00Overcast Clouds25°C2 mph, E98%10000m1015hPa72%
20-Apr-2024 09:00Broken Clouds29°C4 mph, E65%10000m1012hPa57%
20-Apr-2024 12:00Light Rain26°C4 mph, E78%10000m1012hPa75%
20-Apr-2024 15:00Light Rain22°C2 mph, SE93%10000m1014hPa99%